createdAt,value
2018-05-25T00:01:47.946Z,2.50
2018-05-25T00:04:15.526Z,2.70
2018-05-25T00:06:43.009Z,2.20
2018-05-25T00:09:10.561Z,2.80
2018-05-25T00:11:38.034Z,2.97
2018-05-25T00:14:05.611Z,2.73
2018-05-25T00:16:33.176Z,3.03
2018-05-25T00:19:00.672Z,3.00
2018-05-25T00:21:28.153Z,2.97
2018-05-25T00:23:55.624Z,2.17
2018-05-25T00:26:24.697Z,2.57
2018-05-25T00:28:52.173Z,2.30
2018-05-25T00:31:19.728Z,2.03
2018-05-25T00:33:47.305Z,2.10
2018-05-25T00:36:14.872Z,2.07
2018-05-25T00:38:42.609Z,2.30
2018-05-25T00:41:10.850Z,1.97
2018-05-25T00:43:38.328Z,2.00
2018-05-25T00:46:05.897Z,3.77
2018-05-25T00:48:33.378Z,3.00
2018-05-25T00:51:00.920Z,3.00
2018-05-25T00:53:28.497Z,2.93
2018-05-25T00:55:56.105Z,2.50
2018-05-25T00:58:23.597Z,3.50
2018-05-25T01:00:52.177Z,2.50
2018-05-25T01:03:20.424Z,2.10
2018-05-25T01:05:48.005Z,3.23
2018-05-25T01:08:15.573Z,2.63
2018-05-25T01:10:43.049Z,2.23
2018-05-25T01:13:10.541Z,2.63
2018-05-25T01:15:38.084Z,1.97
2018-05-25T01:18:05.681Z,2.40
2018-05-25T01:20:33.243Z,2.47
2018-05-25T01:23:00.887Z,2.53
2018-05-25T01:25:28.371Z,2.40
2018-05-25T01:27:55.947Z,2.20
2018-05-25T01:30:23.413Z,2.37
2018-05-25T01:32:50.981Z,3.00
2018-05-25T01:35:18.460Z,2.60
2018-05-25T01:37:46.030Z,2.73
2018-05-25T01:40:13.506Z,2.57
2018-05-25T01:42:41.074Z,2.37
2018-05-25T01:45:08.625Z,2.37
2018-05-25T01:47:36.124Z,2.20
2018-05-25T01:50:03.685Z,2.40
2018-05-25T01:52:31.148Z,3.00
2018-05-25T01:54:58.734Z,2.83
2018-05-25T01:57:26.201Z,3.50
2018-05-25T01:59:53.764Z,2.23
2018-05-25T02:02:21.342Z,2.73
2018-05-25T02:04:48.820Z,3.20
2018-05-25T02:07:16.385Z,2.83
2018-05-25T02:09:43.958Z,2.50
2018-05-25T02:12:11.441Z,2.27
2018-05-25T02:14:38.937Z,3.40
2018-05-25T02:17:06.457Z,2.27
2018-05-25T02:19:33.956Z,2.90
2018-05-25T02:22:01.437Z,2.23
2018-05-25T02:24:28.928Z,3.20
2018-05-25T02:26:56.452Z,2.03
2018-05-25T02:29:24.013Z,2.20
2018-05-25T02:31:51.508Z,1.97
2018-05-25T02:34:19.170Z,2.00
2018-05-25T02:36:46.645Z,2.23
2018-05-25T02:39:14.218Z,3.50
2018-05-25T02:41:41.688Z,2.77
2018-05-25T02:44:09.160Z,2.20
2018-05-25T02:46:36.648Z,2.10
2018-05-25T02:49:04.157Z,3.03
2018-05-25T02:51:32.403Z,2.47
2018-05-25T02:53:59.958Z,2.20
2018-05-25T02:56:27.429Z,2.33
2018-05-25T02:58:55.002Z,1.80
2018-05-25T03:01:22.565Z,2.43
2018-05-25T03:03:50.054Z,2.20
2018-05-25T03:06:17.617Z,1.80
2018-05-25T03:08:45.091Z,1.87
2018-05-25T03:11:12.578Z,3.03
2018-05-25T03:13:40.120Z,2.03
2018-05-25T03:16:07.697Z,2.57
2018-05-25T03:18:35.179Z,2.63
2018-05-25T03:21:02.661Z,2.63
2018-05-25T03:23:30.939Z,2.97
2018-05-25T03:25:58.512Z,1.70
2018-05-25T03:28:26.079Z,1.87
2018-05-25T03:30:53.549Z,2.40
2018-05-25T03:33:21.092Z,2.00
2018-05-25T03:35:49.320Z,2.30
2018-05-25T03:38:16.886Z,2.53
2018-05-25T03:40:44.447Z,2.10
2018-05-25T03:43:11.938Z,2.17
2018-05-25T03:45:39.427Z,2.40
2018-05-25T03:48:06.971Z,1.80
2018-05-25T03:50:34.547Z,2.20
2018-05-25T03:53:02.040Z,2.13
2018-05-25T03:55:30.269Z,2.13
2018-05-25T03:57:57.747Z,2.13
2018-05-25T04:00:37.321Z,2.20
2018-05-25T04:03:04.813Z,2.07
2018-05-25T04:05:33.073Z,2.20
2018-05-25T04:08:00.537Z,2.73
2018-05-25T04:10:28.932Z,2.77
2018-05-25T04:12:56.430Z,2.80
2018-05-25T04:15:23.968Z,2.20
2018-05-25T04:17:51.464Z,2.77
2018-05-25T04:20:19.037Z,2.00
2018-05-25T04:22:46.520Z,1.93
2018-05-25T04:25:13.996Z,1.87
2018-05-25T04:27:41.476Z,2.70
2018-05-25T04:30:08.980Z,2.20
2018-05-25T04:32:36.465Z,1.97
2018-05-25T04:35:03.970Z,2.27
2018-05-25T04:37:32.958Z,2.13
2018-05-25T04:40:00.528Z,2.20
2018-05-25T04:42:28.009Z,2.27
2018-05-25T04:44:55.496Z,2.47
2018-05-25T04:47:23.049Z,2.10
2018-05-25T04:49:50.542Z,2.43
2018-05-25T04:52:18.032Z,3.57
2018-05-25T04:54:46.256Z,2.07
2018-05-25T04:57:13.877Z,2.80
2018-05-25T04:59:41.426Z,2.60
2018-05-25T05:02:08.916Z,3.70
2018-05-25T05:04:36.477Z,1.73
2018-05-25T05:07:04.131Z,2.50
2018-05-25T05:09:31.626Z,2.13
2018-05-25T05:11:59.160Z,3.73
2018-05-25T05:14:26.735Z,3.90
2018-05-25T05:16:54.334Z,2.43
2018-05-25T05:19:21.888Z,2.73
2018-05-25T05:21:49.465Z,2.40
2018-05-25T05:24:17.033Z,2.37
2018-05-25T05:26:44.497Z,2.33
2018-05-25T05:29:11.974Z,3.07
2018-05-25T05:31:39.637Z,2.13
2018-05-25T05:34:07.194Z,2.40
2018-05-25T05:36:34.669Z,2.43
2018-05-25T05:39:02.260Z,2.20
2018-05-25T05:41:29.758Z,1.87
2018-05-25T05:43:57.282Z,2.23
2018-05-25T05:46:24.765Z,2.60
2018-05-25T05:48:52.247Z,3.67
2018-05-25T05:51:19.801Z,2.17
2018-05-25T05:53:47.276Z,2.80
2018-05-25T05:56:14.853Z,2.20
2018-05-25T05:58:42.337Z,3.33
2018-05-25T06:01:09.905Z,3.03
2018-05-25T06:03:37.469Z,3.53
2018-05-25T06:06:05.037Z,3.03
2018-05-25T06:08:32.610Z,2.20
2018-05-25T06:11:00.108Z,2.57
2018-05-25T06:13:27.602Z,2.90
2018-05-25T06:15:55.871Z,2.47
2018-05-25T06:18:23.333Z,2.33
2018-05-25T06:20:50.804Z,2.33
2018-05-25T06:23:18.279Z,2.23
2018-05-25T06:25:45.825Z,3.60
2018-05-25T06:28:13.401Z,2.93
2018-05-25T06:30:40.913Z,2.97
2018-05-25T06:33:08.405Z,2.20
2018-05-25T06:35:36.749Z,2.53
2018-05-25T06:38:04.222Z,2.90
2018-05-25T06:40:31.768Z,2.63
2018-05-25T06:42:59.236Z,2.77
2018-05-25T06:45:26.725Z,3.03
2018-05-25T06:47:54.268Z,3.10
2018-05-25T06:50:21.864Z,2.00
2018-05-25T06:52:49.341Z,2.70
2018-05-25T06:55:16.815Z,2.67
2018-05-25T06:57:44.379Z,2.87
2018-05-25T07:00:11.934Z,2.30
2018-05-25T07:02:39.469Z,2.67
2018-05-25T07:05:07.877Z,2.40
2018-05-25T07:07:36.130Z,3.73
2018-05-25T07:10:03.765Z,2.73
2018-05-25T07:12:31.261Z,2.53
2018-05-25T07:14:58.733Z,2.30
2018-05-25T07:17:26.216Z,2.70
2018-05-25T07:19:53.696Z,2.80
2018-05-25T07:22:21.946Z,2.57
2018-05-25T07:24:49.480Z,2.77
2018-05-25T07:27:17.037Z,2.57
2018-05-25T07:29:45.277Z,2.50
2018-05-25T07:32:12.845Z,2.60
2018-05-25T07:34:40.389Z,3.23
2018-05-25T07:37:07.889Z,3.93
2018-05-25T07:39:35.377Z,3.00
2018-05-25T07:42:02.885Z,3.27
2018-05-25T07:44:31.225Z,3.23
2018-05-25T07:46:58.700Z,4.77
2018-05-25T07:49:26.177Z,2.43
2018-05-25T07:51:53.660Z,2.77
2018-05-25T07:54:21.224Z,2.90
2018-05-25T07:56:48.781Z,3.10
2018-05-25T07:59:16.274Z,3.50
2018-05-25T08:01:43.749Z,2.93
2018-05-25T08:04:11.466Z,4.50
2018-05-25T08:06:38.949Z,2.30
2018-05-25T08:09:07.228Z,2.97
2018-05-25T08:11:34.819Z,3.33
2018-05-25T08:14:02.290Z,3.07
2018-05-25T08:16:29.957Z,3.50
2018-05-25T08:18:57.529Z,2.90
2018-05-25T08:21:25.005Z,3.50
2018-05-25T08:23:52.564Z,2.70
2018-05-25T08:26:20.137Z,3.00
2018-05-25T08:28:47.628Z,3.13
2018-05-25T08:31:15.112Z,3.73
2018-05-25T08:33:42.597Z,2.80
2018-05-25T08:36:10.106Z,2.27
2018-05-25T08:38:37.746Z,2.20
2018-05-25T08:41:06.007Z,2.63
2018-05-25T08:43:33.500Z,2.37
2018-05-25T08:46:01.026Z,2.77
2018-05-25T08:48:28.608Z,3.00
2018-05-25T08:50:56.170Z,2.90
2018-05-25T08:53:23.757Z,2.97
2018-05-25T08:55:51.256Z,3.30
2018-05-25T08:58:18.737Z,6.10
2018-05-25T09:00:46.994Z,3.60
2018-05-25T09:03:14.547Z,2.80
2018-05-25T09:05:42.121Z,3.20
2018-05-25T09:08:09.713Z,2.90
2018-05-25T09:10:37.271Z,2.83
2018-05-25T09:13:04.811Z,2.90
2018-05-25T09:15:32.292Z,3.17
2018-05-25T09:17:59.868Z,3.33
2018-05-25T09:20:27.373Z,3.93
2018-05-25T09:22:54.927Z,3.53
2018-05-25T09:25:22.392Z,3.17
2018-05-25T09:27:49.956Z,2.70
2018-05-25T09:30:17.531Z,3.07
2018-05-25T09:32:45.000Z,4.23
2018-05-25T09:35:12.499Z,3.37
2018-05-25T09:37:40.059Z,3.93
2018-05-25T09:40:07.711Z,4.83
2018-05-25T09:42:35.221Z,3.20
2018-05-25T09:45:02.690Z,4.60
2018-05-25T09:47:30.228Z,3.53
2018-05-25T09:49:57.697Z,3.90
2018-05-25T09:52:25.276Z,3.37
2018-05-25T09:54:52.771Z,4.00
2018-05-25T09:57:20.301Z,2.90
2018-05-25T09:59:47.868Z,3.37
2018-05-25T10:02:16.093Z,6.50
2018-05-25T10:04:43.645Z,4.13
2018-05-25T10:07:11.121Z,2.80
2018-05-25T10:09:38.618Z,2.60
2018-05-25T10:12:06.169Z,3.03
2018-05-25T10:14:33.666Z,4.70
2018-05-25T10:17:01.149Z,3.30
2018-05-25T10:19:29.500Z,3.40
2018-05-25T10:21:56.986Z,3.00
2018-05-25T10:24:24.473Z,4.47
2018-05-25T10:26:52.000Z,2.90
2018-05-25T10:29:19.481Z,4.33
2018-05-25T10:31:47.046Z,3.07
2018-05-25T10:34:14.624Z,3.27
2018-05-25T10:36:42.109Z,5.23
2018-05-25T10:39:09.672Z,4.27
2018-05-25T10:41:37.229Z,3.67
2018-05-25T10:44:04.730Z,3.20
2018-05-25T10:46:32.202Z,3.53
2018-05-25T10:48:59.733Z,3.20
2018-05-25T10:51:27.210Z,3.87
2018-05-25T10:53:54.784Z,3.87
2018-05-25T10:56:22.405Z,2.90
2018-05-25T10:58:49.996Z,3.23
2018-05-25T11:01:17.496Z,3.00
2018-05-25T11:03:45.094Z,4.17
2018-05-25T11:06:12.700Z,2.97
2018-05-25T11:08:40.972Z,3.27
2018-05-25T11:11:08.520Z,4.17
2018-05-25T11:13:36.139Z,3.80
2018-05-25T11:16:04.396Z,2.90
2018-05-25T11:18:31.898Z,3.20
2018-05-25T11:21:00.302Z,4.30
2018-05-25T11:23:27.792Z,5.07
2018-05-25T11:25:55.357Z,3.10
2018-05-25T11:28:22.927Z,3.60
2018-05-25T11:30:51.238Z,3.20
2018-05-25T11:33:18.712Z,2.70
2018-05-25T11:35:46.195Z,3.30
2018-05-25T11:38:13.811Z,3.43
2018-05-25T11:40:42.058Z,4.63
2018-05-25T11:43:09.613Z,3.23
2018-05-25T11:45:37.105Z,4.40
2018-05-25T11:48:04.632Z,2.87
2018-05-25T11:50:32.955Z,3.47
2018-05-25T11:53:00.465Z,3.07
2018-05-25T11:55:27.925Z,5.33
2018-05-25T11:57:55.389Z,6.50
2018-05-25T12:00:22.877Z,9.57
2018-05-25T12:02:50.388Z,23.63
2018-05-25T12:05:17.868Z,11.20
2018-05-25T12:07:45.349Z,14.37
2018-05-25T12:10:12.919Z,8.27
2018-05-25T12:12:40.396Z,17.97
2018-05-25T12:15:07.878Z,9.60
2018-05-25T12:17:35.427Z,6.83
2018-05-25T12:20:03.015Z,7.83
2018-05-25T12:22:30.512Z,7.40
2018-05-25T12:24:58.856Z,7.93
2018-05-25T12:27:26.421Z,9.30
2018-05-25T12:29:53.897Z,10.33
2018-05-25T12:32:21.381Z,39.57
2018-05-25T12:34:48.891Z,15.80
2018-05-25T12:37:16.390Z,7.23
2018-05-25T12:39:43.976Z,9.40
2018-05-25T12:42:11.575Z,7.50
2018-05-25T12:44:50.896Z,4.17
2018-05-25T12:47:18.452Z,5.37
2018-05-25T12:49:46.756Z,5.03
2018-05-25T12:52:14.329Z,3.87
2018-05-25T12:54:41.930Z,3.77
2018-05-25T12:57:09.427Z,7.70
2018-05-25T12:59:37.802Z,5.80
2018-05-25T13:02:05.383Z,6.63
2018-05-25T13:04:32.888Z,5.17
2018-05-25T13:07:01.148Z,4.17
2018-05-25T13:09:28.873Z,7.67
2018-05-25T13:11:56.381Z,8.07
2018-05-25T13:14:24.619Z,6.47
2018-05-25T13:16:52.094Z,5.32
2018-05-25T13:19:19.672Z,8.77
2018-05-25T13:21:47.209Z,13.90
2018-05-25T13:24:14.716Z,27.57
2018-05-25T13:26:42.289Z,18.20
2018-05-25T13:29:09.793Z,16.30
2018-05-25T13:31:37.256Z,11.60
2018-05-25T13:34:04.774Z,7.47
2018-05-25T13:36:33.073Z,8.20
2018-05-25T13:39:00.592Z,9.00
2018-05-25T13:41:28.064Z,9.87
2018-05-25T13:43:55.592Z,7.30
2018-05-25T13:46:23.173Z,15.05
2018-05-25T13:48:50.666Z,7.53
2018-05-25T13:51:18.255Z,7.80
2018-05-25T13:53:45.747Z,8.20
2018-05-25T13:56:14.105Z,7.77
2018-05-25T14:01:17.504Z,6.17
2018-05-25T14:03:45.125Z,8.10
2018-05-25T14:06:14.090Z,6.70
2018-05-25T14:08:41.664Z,6.63
2018-05-25T14:11:09.424Z,8.93
2018-05-25T14:13:37.777Z,5.63
2018-05-25T14:16:06.332Z,6.90
2018-05-25T14:18:33.941Z,4.67
2018-05-25T14:21:01.482Z,5.60
2018-05-25T14:23:29.058Z,8.63
2018-05-25T14:25:56.539Z,9.30
2018-05-25T14:28:24.029Z,7.30
2018-05-25T14:30:52.400Z,9.50
2018-05-25T14:33:19.945Z,3.53
2018-05-25T14:35:47.456Z,3.03
2018-05-25T14:38:14.959Z,6.17
2018-05-25T14:40:43.201Z,7.80
2018-05-25T14:43:10.763Z,7.50
2018-05-25T14:45:38.509Z,6.67
2018-05-25T14:48:05.998Z,5.47
2018-05-25T14:50:33.569Z,7.72
2018-05-25T14:53:01.244Z,4.57
2018-05-25T14:55:28.814Z,5.75
2018-05-25T14:57:56.397Z,9.82
2018-05-25T15:00:23.942Z,4.90
2018-05-25T15:02:51.456Z,7.25
2018-05-25T15:05:19.033Z,9.90
2018-05-25T15:07:46.557Z,5.73
2018-05-25T15:10:14.257Z,5.27
2018-05-25T15:12:41.836Z,11.15
2018-05-25T15:15:09.419Z,10.32
2018-05-25T15:17:36.980Z,4.60
2018-05-25T15:20:04.462Z,6.23
2018-05-25T15:22:31.936Z,5.60
2018-05-25T15:24:59.412Z,6.57
2018-05-25T15:27:26.915Z,5.40
2018-05-25T15:29:54.417Z,4.22
2018-05-25T15:32:21.889Z,11.40
2018-05-25T15:34:49.461Z,17.23
2018-05-25T15:37:16.965Z,14.53
2018-05-25T15:39:44.483Z,8.53
2018-05-25T15:42:12.029Z,12.27
2018-05-25T15:44:40.284Z,9.50
2018-05-25T15:47:07.806Z,7.97
2018-05-25T15:49:35.290Z,10.27
2018-05-25T15:52:02.769Z,7.17
2018-05-25T15:54:30.349Z,7.80
2018-05-25T15:56:57.860Z,5.30
2018-05-25T15:59:25.391Z,6.77
2018-05-25T16:01:52.861Z,7.33
2018-05-25T16:04:20.350Z,5.97
2018-05-25T16:06:47.822Z,6.90
2018-05-25T16:09:15.370Z,6.43
2018-05-25T16:11:43.002Z,5.17
2018-05-25T16:14:11.388Z,7.07
2018-05-25T16:16:38.837Z,7.27
2018-05-25T16:19:06.412Z,7.27
2018-05-25T16:21:33.889Z,7.35
2018-05-25T16:24:02.952Z,5.30
2018-05-25T16:26:30.524Z,5.07
2018-05-25T16:28:58.069Z,5.03
2018-05-25T16:31:25.497Z,7.43
2018-05-25T16:33:52.989Z,10.70
2018-05-25T16:36:21.346Z,8.97
2018-05-25T16:38:48.890Z,7.37
2018-05-25T16:41:17.111Z,4.63
2018-05-25T16:43:44.600Z,5.03
2018-05-25T16:46:12.156Z,3.17
2018-05-25T16:48:39.710Z,3.90
2018-05-25T16:51:07.228Z,2.10
2018-05-25T16:53:35.517Z,2.83
2018-05-25T16:56:03.827Z,2.87
2018-05-25T16:58:31.472Z,2.03
2018-05-25T17:00:59.714Z,4.57
2018-05-25T17:03:27.202Z,8.23
2018-05-25T17:05:54.737Z,19.87
2018-05-25T17:08:22.269Z,6.20
2018-05-25T17:10:49.742Z,5.97
2018-05-25T17:13:17.219Z,2.73
2018-05-25T17:15:45.542Z,6.07
2018-05-25T17:18:13.061Z,2.63
2018-05-25T17:20:40.624Z,4.47
2018-05-25T17:23:08.213Z,4.30
2018-05-25T17:25:35.833Z,4.83
2018-05-25T17:28:03.300Z,3.77
2018-05-25T17:30:30.821Z,3.60
2018-05-25T17:32:58.348Z,3.63
2018-05-25T17:35:25.829Z,3.13
2018-05-25T17:37:53.398Z,3.03
2018-05-25T17:40:20.893Z,2.33
2018-05-25T17:42:48.365Z,3.70
2018-05-25T17:45:15.848Z,2.73
2018-05-25T17:47:43.473Z,2.67
2018-05-25T17:50:11.003Z,4.20
2018-05-25T17:52:38.522Z,2.77
2018-05-25T17:55:06.022Z,2.80
2018-05-25T17:57:33.514Z,2.33
2018-05-25T18:00:01.773Z,5.47
2018-05-25T18:02:29.245Z,2.63
2018-05-25T18:04:56.721Z,1.97
2018-05-25T18:07:24.676Z,2.63
2018-05-25T18:09:52.249Z,2.03
2018-05-25T18:12:19.825Z,2.70
2018-05-25T18:14:47.392Z,2.97
2018-05-25T18:17:15.004Z,2.77
2018-05-25T18:19:42.561Z,2.67
2018-05-25T18:22:10.084Z,2.80
2018-05-25T18:24:38.414Z,2.67
2018-05-25T18:27:06.193Z,2.53
2018-05-25T18:29:33.660Z,3.67
2018-05-25T18:32:01.145Z,3.10
2018-05-25T18:34:28.636Z,3.43
2018-05-25T18:36:56.284Z,3.10
2018-05-25T18:39:23.851Z,2.40
2018-05-25T18:41:51.334Z,4.97
2018-05-25T18:44:18.881Z,2.03
2018-05-25T18:46:46.352Z,2.30
2018-05-25T18:49:13.941Z,2.13
2018-05-25T18:51:41.516Z,3.20
2018-05-25T18:54:20.952Z,2.90
2018-05-25T18:56:48.437Z,2.27
2018-05-25T18:59:15.917Z,3.67
2018-05-25T19:01:43.449Z,2.50
2018-05-25T19:04:10.921Z,2.37
2018-05-25T19:06:38.481Z,2.37
2018-05-25T19:09:06.873Z,3.77
2018-05-25T19:11:34.367Z,2.13
2018-05-25T19:14:01.932Z,2.27
2018-05-25T19:16:29.509Z,2.07
2018-05-25T19:18:57.022Z,1.63
2018-05-25T19:21:24.552Z,2.87
2018-05-25T19:23:52.042Z,3.10
2018-05-25T19:26:19.657Z,3.13
2018-05-25T19:28:48.158Z,2.00
2018-05-25T19:31:15.653Z,2.43
2018-05-25T19:33:43.133Z,2.00
2018-05-25T19:36:10.650Z,4.57
2018-05-25T19:38:38.914Z,3.47
2018-05-25T19:41:06.668Z,2.27
2018-05-25T19:43:34.145Z,2.03
2018-05-25T19:46:01.714Z,2.50
2018-05-25T19:48:29.296Z,2.23
2018-05-25T19:50:56.756Z,2.40
2018-05-25T19:53:24.256Z,2.27
2018-05-25T19:55:51.738Z,2.00
2018-05-25T19:58:19.200Z,2.90
2018-05-25T20:00:46.734Z,2.37
2018-05-25T20:03:14.306Z,2.30
2018-05-25T20:05:41.797Z,2.77
2018-05-25T20:08:09.366Z,3.10
2018-05-25T20:10:36.857Z,2.73
2018-05-25T20:13:04.381Z,3.07
2018-05-25T20:15:31.853Z,2.87
2018-05-25T20:17:59.493Z,3.30
2018-05-25T20:20:27.733Z,3.40
2018-05-25T20:22:55.288Z,2.50
2018-05-25T20:25:22.861Z,2.23
2018-05-25T20:27:50.324Z,1.90
2018-05-25T20:30:17.905Z,2.70
2018-05-25T20:32:45.457Z,2.33
2018-05-25T20:35:13.705Z,3.77
2018-05-25T20:37:41.230Z,2.00
2018-05-25T20:40:08.705Z,1.87
2018-05-25T20:42:36.406Z,2.77
2018-05-25T20:45:03.945Z,2.00
2018-05-25T20:47:31.418Z,2.57
2018-05-25T20:49:58.988Z,1.80
2018-05-25T20:52:26.551Z,2.10
2018-05-25T20:54:54.039Z,2.00
2018-05-25T20:57:21.516Z,3.03
2018-05-25T20:59:48.992Z,1.70
2018-05-25T21:02:16.484Z,2.13
2018-05-25T21:04:44.729Z,2.03
2018-05-25T21:07:12.329Z,2.20
2018-05-25T21:09:39.820Z,1.70
2018-05-25T21:12:07.380Z,2.80
2018-05-25T21:14:34.944Z,2.03
2018-05-25T21:17:02.422Z,2.93
2018-05-25T21:19:30.065Z,2.50
2018-05-25T21:21:57.560Z,2.80
2018-05-25T21:24:25.043Z,2.87
2018-05-25T21:26:52.557Z,1.80
2018-05-25T21:29:20.911Z,2.10
2018-05-25T21:31:48.375Z,2.03
2018-05-25T21:34:15.866Z,2.37
2018-05-25T21:36:44.214Z,3.17
2018-05-25T21:39:11.777Z,1.93
2018-05-25T21:41:39.310Z,2.00
2018-05-25T21:44:06.835Z,4.13
2018-05-25T21:46:34.611Z,2.17
2018-05-25T21:49:02.077Z,2.70
2018-05-25T21:51:29.633Z,2.07
2018-05-25T21:53:57.191Z,1.73
2018-05-25T21:56:24.689Z,1.90
2018-05-25T21:58:52.168Z,2.43
2018-05-25T22:01:19.807Z,1.70
2018-05-25T22:03:47.288Z,2.63
2018-05-25T22:06:14.897Z,2.70
2018-05-25T22:08:42.441Z,1.97
2018-05-25T22:11:10.042Z,3.10
2018-05-25T22:13:37.590Z,2.77
2018-05-25T22:16:05.184Z,2.63
2018-05-25T22:18:32.662Z,2.67
2018-05-25T22:21:00.199Z,2.37
2018-05-25T22:23:27.677Z,3.03
2018-05-25T22:25:55.153Z,1.40
2018-05-25T22:28:22.722Z,2.93
2018-05-25T22:30:50.283Z,1.90
2018-05-25T22:33:17.967Z,2.20
2018-05-25T22:35:45.576Z,3.60
2018-05-25T22:38:13.109Z,2.20
2018-05-25T22:40:40.601Z,1.80
2018-05-25T22:43:20.005Z,2.70
2018-05-25T22:45:59.573Z,3.33
2018-05-25T22:48:39.004Z,1.73
2018-05-25T22:51:18.473Z,2.33
2018-05-25T22:53:51.313Z,2.37
2018-05-25T22:56:18.784Z,2.93
2018-05-25T22:58:46.325Z,3.20
2018-05-25T23:01:13.805Z,2.47
2018-05-25T23:03:41.382Z,1.97
2018-05-25T23:06:08.858Z,1.93
2018-05-25T23:08:36.370Z,2.57
2018-05-25T23:11:04.641Z,2.07
2018-05-25T23:13:33.641Z,3.37
2018-05-25T23:16:01.108Z,1.60
2018-05-25T23:18:28.684Z,4.07
2018-05-25T23:20:56.126Z,2.40
2018-05-25T23:23:23.693Z,1.77
2018-05-25T23:25:51.252Z,2.07
2018-05-25T23:28:18.816Z,3.07
2018-05-25T23:30:46.289Z,2.57
2018-05-25T23:33:13.873Z,2.43
2018-05-25T23:35:41.411Z,2.10
2018-05-25T23:38:08.922Z,2.13
2018-05-25T23:40:36.401Z,2.63
2018-05-25T23:43:03.868Z,2.40
2018-05-25T23:45:31.364Z,2.87
2018-05-25T23:47:59.604Z,2.00
2018-05-25T23:50:27.097Z,2.73
2018-05-25T23:52:54.657Z,2.20
2018-05-25T23:55:22.145Z,3.73
2018-05-25T23:57:49.620Z,2.13
